Airport ID:KJTC
Update Time (UTC):15/10/2019 07:02
Wind Speed (Knots):5
Wind Direction (Magnetic):190
Temperature (°C):3
Dew Point (°C):-3
Humidity (%):62
Altimeter (inHg):30.22
Density Altitude (Feet):
Visibility (Miles):10+
Clouds (Hundreds of feet):CLR
Present Weather:
METAR:METAR KJTC 150700Z AUTO 21005KT 10SM CLR 03/M03 A3022 RMK AO2

The data displayed is for advisory purposes only and is not to be used for flight planning or operations.

This page is not automatically refreshed. Reload the page to see current data.